Time;durP1;ratioP1;P1;durP2;ratioP2;P2;SDS_P1;SDS_P2;PMS_P1;PMS_P2;Temp;Humidity;BMP_temperature;BMP_pressure;BME280_temperature;BME280_humidity;BME280_pressure;Samples;Min_cycle;Max_cycle;Signal;HPM_P1;HPM_P2
2023/05/20 00:00:25;;;;;;;21.83;17.10;;;;;;;;;;5056034;28;20066;-75
2023/05/20 00:02:51;;;;;;;21.58;16.30;;;;;;;;;;5062867;28;20029;-76
2023/05/20 00:05:17;;;;;;;21.10;17.08;;;;;;;;;;5063354;28;20030;-76
2023/05/20 00:07:43;;;;;;;23.73;18.25;;;;;;;;;;5037116;28;20116;-76
2023/05/20 00:10:09;;;;;;;26.75;18.85;;;;;;;;;;5061797;28;20440;-76
2023/05/20 00:12:35;;;;;;;21.65;16.70;;;;;;;;;;5065191;28;20025;-74
2023/05/20 00:15:01;;;;;;;24.35;18.33;;;;;;;;;;5060657;28;20440;-74
2023/05/20 00:17:28;;;;;;;22.30;17.77;;;;;;;;;;5057117;28;20028;-75
2023/05/20 00:19:54;;;;;;;22.55;17.58;;;;;;;;;;5049717;28;20024;-74
2023/05/20 00:22:20;;;;;;;23.15;17.63;;;;;;;;;;5055371;28;20410;-75
2023/05/20 00:24:46;;;;;;;23.05;17.67;;;;;;;;;;5063463;28;20028;-75
2023/05/20 00:27:12;;;;;;;22.70;18.42;;;;;;;;;;5043461;28;20036;-74
2023/05/20 00:29:38;;;;;;;25.15;18.77;;;;;;;;;;5056140;28;20111;-75
2023/05/20 00:32:04;;;;;;;23.27;19.25;;;;;;;;;;5067467;28;20021;-74
2023/05/20 00:34:30;;;;;;;25.13;18.63;;;;;;;;;;5038503;28;20012;-74
2023/05/20 00:36:56;;;;;;;22.77;19.05;;;;;;;;;;5061630;28;20025;-74
2023/05/20 00:39:22;;;;;;;25.27;20.25;;;;;;;;;;5062913;28;20032;-74
2023/05/20 00:41:48;;;;;;;29.52;19.80;;;;;;;;;;5055159;28;20390;-74
2023/05/20 00:44:15;;;;;;;26.45;20.45;;;;;;;;;;5067340;28;20091;-74
2023/05/20 00:46:41;;;;;;;28.00;21.23;;;;;;;;;;5057060;28;20393;-75
2023/05/20 00:49:07;;;;;;;28.70;20.63;;;;;;;;;;5059725;28;20100;-75
2023/05/20 00:51:33;;;;;;;27.02;20.95;;;;;;;;;;5064854;28;20491;-75
2023/05/20 00:53:59;;;;;;;25.40;20.27;;;;;;;;;;5036381;28;20028;-75
2023/05/20 00:56:25;;;;;;;29.40;21.55;;;;;;;;;;5078546;23;20085;-75
2023/05/20 00:58:51;;;;;;;32.70;21.58;;;;;;;;;;5032088;28;20041;-74
2023/05/20 01:01:17;;;;;;;28.38;21.20;;;;;;;;;;5039319;28;20036;-75
2023/05/20 01:03:44;;;;;;;30.88;23.00;;;;;;;;;;5028776;28;20051;-75
2023/05/20 01:06:10;;;;;;;30.25;21.48;;;;;;;;;;5034588;28;20526;-76
2023/05/20 01:08:36;;;;;;;28.65;20.70;;;;;;;;;;5030292;28;20088;-75
2023/05/20 01:11:02;;;;;;;29.35;22.10;;;;;;;;;;5042090;28;20044;-75
2023/05/20 01:13:31;;;;;;;28.45;22.67;;;;;;;;;;5038033;28;20037;-75
2023/05/20 01:15:57;;;;;;;29.88;23.00;;;;;;;;;;5029542;28;20037;-76
2023/05/20 01:18:25;;;;;;;32.63;22.50;;;;;;;;;;5017126;28;20025;-76
2023/05/20 01:20:54;;;;;;;30.65;22.65;;;;;;;;;;5042671;28;20742;-76
2023/05/20 01:23:20;;;;;;;34.90;24.65;;;;;;;;;;5043235;28;20024;-75
2023/05/20 01:25:46;;;;;;;30.73;23.67;;;;;;;;;;5033287;28;20116;-76
2023/05/20 01:28:16;;;;;;;32.05;23.13;;;;;;;;;;5033748;28;20025;-75
2023/05/20 01:30:44;;;;;;;30.48;23.05;;;;;;;;;;5044590;28;20018;-76
2023/05/20 01:33:11;;;;;;;30.38;23.67;;;;;;;;;;5024833;28;20063;-76
2023/05/20 01:35:38;;;;;;;33.25;24.20;;;;;;;;;;5036680;28;20025;-76
2023/05/20 01:38:05;;;;;;;29.30;22.80;;;;;;;;;;5046573;28;20087;-76
2023/05/20 01:40:32;;;;;;;29.60;22.30;;;;;;;;;;5045543;28;20496;-76
2023/05/20 01:42:58;;;;;;;34.05;23.35;;;;;;;;;;5040035;28;20391;-76
2023/05/20 01:45:25;;;;;;;30.88;22.70;;;;;;;;;;5020459;28;20499;-76
2023/05/20 01:47:51;;;;;;;30.85;23.75;;;;;;;;;;5046791;28;20025;-76
2023/05/20 01:50:17;;;;;;;34.10;24.30;;;;;;;;;;5034634;28;20560;-76
2023/05/20 01:52:43;;;;;;;29.45;21.92;;;;;;;;;;5044100;28;20068;-75
2023/05/20 01:55:09;;;;;;;29.30;22.75;;;;;;;;;;5020371;28;20488;-76
2023/05/20 01:57:35;;;;;;;27.50;22.02;;;;;;;;;;5030789;28;20041;-75
2023/05/20 02:00:01;;;;;;;32.88;23.60;;;;;;;;;;5035308;28;20029;-76
2023/05/20 02:02:27;;;;;;;31.27;23.10;;;;;;;;;;5049045;28;20041;-76
2023/05/20 02:04:53;;;;;;;32.95;23.02;;;;;;;;;;5024697;28;20072;-76
2023/05/20 02:07:20;;;;;;;32.47;23.00;;;;;;;;;;5041240;28;20032;-74
2023/05/20 02:09:46;;;;;;;30.40;23.30;;;;;;;;;;5042513;28;20033;-75
2023/05/20 02:12:15;;;;;;;30.45;23.00;;;;;;;;;;5050687;28;20026;-75
2023/05/20 02:14:45;;;;;;;29.02;21.65;;;;;;;;;;5041541;28;20021;-75
2023/05/20 02:17:11;;;;;;;27.75;22.17;;;;;;;;;;5025028;28;20057;-75
2023/05/20 02:19:37;;;;;;;30.20;22.48;;;;;;;;;;5048204;28;20025;-76
2023/05/20 02:22:03;;;;;;;30.13;22.17;;;;;;;;;;5037440;28;20064;-76
2023/05/20 02:24:29;;;;;;;29.83;22.98;;;;;;;;;;5049052;28;20028;-76
2023/05/20 02:26:56;;;;;;;33.67;24.95;;;;;;;;;;5042207;28;20017;-76
2023/05/20 02:29:22;;;;;;;30.63;22.75;;;;;;;;;;5022381;28;20017;-76
2023/05/20 02:31:48;;;;;;;31.83;22.88;;;;;;;;;;5049595;28;20021;-76
2023/05/20 02:34:15;;;;;;;32.03;23.13;;;;;;;;;;5036850;28;20028;-76
2023/05/20 02:36:41;;;;;;;31.10;22.90;;;;;;;;;;5046671;28;20029;-76
2023/05/20 02:39:07;;;;;;;28.08;22.25;;;;;;;;;;5032723;28;20450;-76
2023/05/20 02:41:33;;;;;;;35.17;23.67;;;;;;;;;;5029732;28;20074;-76
2023/05/20 02:43:59;;;;;;;29.60;23.13;;;;;;;;;;5034408;28;20383;-77
2023/05/20 02:46:25;;;;;;;34.03;24.15;;;;;;;;;;5038157;28;20386;-76
2023/05/20 02:48:51;;;;;;;32.75;25.05;;;;;;;;;;5045898;28;20610;-75
2023/05/20 02:51:17;;;;;;;32.13;24.38;;;;;;;;;;5049264;28;20044;-75
2023/05/20 02:53:43;;;;;;;35.88;25.95;;;;;;;;;;5024339;28;20025;-75
2023/05/20 02:56:09;;;;;;;38.50;24.52;;;;;;;;;;5051904;28;20464;-74
2023/05/20 02:58:36;;;;;;;33.65;24.33;;;;;;;;;;5040706;28;20053;-75
2023/05/20 03:01:02;;;;;;;33.40;24.45;;;;;;;;;;5045240;28;20033;-75
2023/05/20 03:03:28;;;;;;;33.08;24.25;;;;;;;;;;5047194;28;20447;-75
2023/05/20 03:05:54;;;;;;;33.10;25.85;;;;;;;;;;5037181;28;20037;-75
2023/05/20 03:08:21;;;;;;;32.42;24.60;;;;;;;;;;5050644;28;20036;-75
2023/05/20 03:10:47;;;;;;;33.33;23.25;;;;;;;;;;5044562;28;20071;-75
2023/05/20 03:13:14;;;;;;;36.47;25.55;;;;;;;;;;5024370;28;20113;-75
2023/05/20 03:15:45;;;;;;;31.80;24.48;;;;;;;;;;5048400;28;20017;-75
2023/05/20 03:18:12;;;;;;;32.22;23.85;;;;;;;;;;5036620;28;20037;-75
2023/05/20 03:20:40;;;;;;;32.47;24.42;;;;;;;;;;5046745;28;20017;-74
2023/05/20 03:23:06;;;;;;;34.38;24.33;;;;;;;;;;5042954;28;20021;-75
2023/05/20 03:25:33;;;;;;;29.98;24.13;;;;;;;;;;5038700;28;20038;-74
2023/05/20 03:27:59;;;;;;;33.63;24.58;;;;;;;;;;5048026;28;20108;-74
2023/05/20 03:30:25;;;;;;;30.85;23.35;;;;;;;;;;5036636;28;20379;-73
2023/05/20 03:32:51;;;;;;;32.72;24.98;;;;;;;;;;5043783;28;20611;-74
2023/05/20 03:35:17;;;;;;;33.35;23.88;;;;;;;;;;5044168;28;20021;-74
2023/05/20 03:37:43;;;;;;;31.75;24.02;;;;;;;;;;5036089;28;20028;-74
2023/05/20 03:40:09;;;;;;;35.25;24.92;;;;;;;;;;5030623;28;20053;-75
2023/05/20 03:42:36;;;;;;;32.05;23.35;;;;;;;;;;5038152;28;20029;-74
2023/05/20 03:45:02;;;;;;;33.75;24.20;;;;;;;;;;5042000;28;20032;-74
2023/05/20 03:47:28;;;;;;;33.75;24.08;;;;;;;;;;5044231;28;20033;-74
2023/05/20 03:49:54;;;;;;;33.72;24.55;;;;;;;;;;5035685;28;20036;-74
2023/05/20 03:52:20;;;;;;;32.20;23.77;;;;;;;;;;5030087;28;20029;-75
2023/05/20 03:54:46;;;;;;;30.42;23.30;;;;;;;;;;5021944;28;20027;-75
2023/05/20 03:57:12;;;;;;;35.50;26.58;;;;;;;;;;5039939;28;20040;-74
2023/05/20 03:59:39;;;;;;;37.60;24.27;;;;;;;;;;5046051;28;20064;-73
2023/05/20 04:02:05;;;;;;;29.83;22.73;;;;;;;;;;5017633;28;20026;-74
2023/05/20 04:04:31;;;;;;;34.88;23.67;;;;;;;;;;5046532;28;20122;-75
2023/05/20 04:07:02;;;;;;;32.83;23.60;;;;;;;;;;5040720;28;20117;-73
2023/05/20 04:09:28;;;;;;;30.35;22.92;;;;;;;;;;5038319;28;20030;-74
2023/05/20 04:11:54;;;;;;;29.88;21.33;;;;;;;;;;5048175;28;20552;-73
2023/05/20 04:14:20;;;;;;;27.58;22.30;;;;;;;;;;5036007;28;20490;-74
2023/05/20 04:16:46;;;;;;;27.75;22.40;;;;;;;;;;5044611;28;20025;-75
2023/05/20 04:19:12;;;;;;;27.52;22.63;;;;;;;;;;5042883;28;20029;-75
2023/05/20 04:21:38;;;;;;;30.98;22.73;;;;;;;;;;5036772;28;20061;-76
2023/05/20 04:24:05;;;;;;;29.55;21.27;;;;;;;;;;5048359;28;20562;-75
2023/05/20 04:26:32;;;;;;;28.00;21.90;;;;;;;;;;5036969;28;20033;-75
2023/05/20 04:29:00;;;;;;;29.30;21.98;;;;;;;;;;5024439;28;20029;-75
2023/05/20 04:31:26;;;;;;;27.98;21.67;;;;;;;;;;5027648;28;20060;-75
2023/05/20 04:33:53;;;;;;;28.92;22.13;;;;;;;;;;5035497;28;20020;-75
2023/05/20 04:36:19;;;;;;;32.38;25.13;;;;;;;;;;5048178;28;20021;-77
2023/05/20 04:38:47;;;;;;;33.88;23.25;;;;;;;;;;5021034;28;20063;-75
2023/05/20 04:41:14;;;;;;;30.95;23.40;;;;;;;;;;5040917;28;20025;-75
2023/05/20 04:43:40;;;;;;;28.80;22.52;;;;;;;;;;5047298;28;20036;-75
2023/05/20 04:46:06;;;;;;;31.77;22.88;;;;;;;;;;5035928;28;20026;-74
2023/05/20 04:48:33;;;;;;;30.42;23.85;;;;;;;;;;5027006;28;20475;-74
2023/05/20 04:50:59;;;;;;;33.55;24.40;;;;;;;;;;5040610;28;20032;-75
2023/05/20 04:53:25;;;;;;;31.15;23.58;;;;;;;;;;5042446;28;20029;-74
2023/05/20 04:55:55;;;;;;;25.85;21.52;;;;;;;;;;5034911;28;20025;-74
2023/05/20 04:58:23;;;;;;;28.35;22.13;;;;;;;;;;5034893;28;20029;-75
2023/05/20 05:00:49;;;;;;;30.80;23.52;;;;;;;;;;5043307;28;20018;-74
2023/05/20 05:03:15;;;;;;;33.45;24.23;;;;;;;;;;5025534;28;20151;-74
2023/05/20 05:05:41;;;;;;;31.25;23.13;;;;;;;;;;5018516;28;20029;-74
2023/05/20 05:08:08;;;;;;;29.33;23.02;;;;;;;;;;5046628;28;20087;-74
2023/05/20 05:10:34;;;;;;;32.15;23.23;;;;;;;;;;5036764;28;20025;-74
2023/05/20 05:13:01;;;;;;;29.48;23.38;;;;;;;;;;5041036;28;20022;-74
2023/05/20 05:15:27;;;;;;;36.38;24.80;;;;;;;;;;5026347;28;20040;-74
2023/05/20 05:17:53;;;;;;;30.85;22.75;;;;;;;;;;5033642;28;20025;-74
2023/05/20 05:20:19;;;;;;;31.65;25.63;;;;;;;;;;5047138;28;20048;-76
2023/05/20 05:22:46;;;;;;;33.13;25.48;;;;;;;;;;5029829;28;20025;-73
2023/05/20 05:25:12;;;;;;;35.00;25.83;;;;;;;;;;5043025;28;20063;-74
2023/05/20 05:27:39;;;;;;;30.45;24.60;;;;;;;;;;5035480;28;20492;-74
2023/05/20 05:30:06;;;;;;;34.83;26.40;;;;;;;;;;5030676;28;20041;-75
2023/05/20 05:32:33;;;;;;;30.88;24.95;;;;;;;;;;5038056;28;20525;-74
2023/05/20 05:34:59;;;;;;;38.80;26.83;;;;;;;;;;5053740;28;20082;-74
2023/05/20 05:37:25;;;;;;;35.28;24.23;;;;;;;;;;5050556;28;20146;-74
2023/05/20 05:39:51;;;;;;;35.85;26.55;;;;;;;;;;5055089;28;20167;-74
2023/05/20 05:42:17;;;;;;;32.25;25.88;;;;;;;;;;5038683;28;20047;-74
2023/05/20 05:44:43;;;;;;;36.88;26.25;;;;;;;;;;5047606;28;20108;-74
2023/05/20 05:47:10;;;;;;;34.15;24.40;;;;;;;;;;5044924;28;20021;-73
2023/05/20 05:49:36;;;;;;;34.03;25.27;;;;;;;;;;5048952;28;20118;-75
2023/05/20 05:52:02;;;;;;;33.05;24.45;;;;;;;;;;5051722;28;20025;-75
2023/05/20 05:54:28;;;;;;;38.55;24.60;;;;;;;;;;5020792;28;20170;-75
2023/05/20 05:56:57;;;;;;;34.08;26.08;;;;;;;;;;5044953;28;20026;-74
2023/05/20 05:59:23;;;;;;;33.55;24.40;;;;;;;;;;5045944;28;20021;-75
2023/05/20 06:01:49;;;;;;;37.92;25.42;;;;;;;;;;5036913;28;20024;-74
2023/05/20 06:04:15;;;;;;;35.15;26.15;;;;;;;;;;5048783;28;20117;-75
2023/05/20 06:06:41;;;;;;;35.88;26.15;;;;;;;;;;5039744;28;20040;-74
2023/05/20 06:09:07;;;;;;;33.47;25.58;;;;;;;;;;5041580;28;20018;-75
2023/05/20 06:11:33;;;;;;;32.28;23.50;;;;;;;;;;5047516;28;20044;-75
2023/05/20 06:14:01;;;;;;;31.45;24.95;;;;;;;;;;5017582;28;20021;-74
2023/05/20 06:16:27;;;;;;;33.55;25.63;;;;;;;;;;5031298;28;20021;-74
2023/05/20 06:18:56;;;;;;;36.20;25.27;;;;;;;;;;5023607;28;20032;-75
2023/05/20 06:21:22;;;;;;;30.50;23.90;;;;;;;;;;5041359;28;20411;-75
2023/05/20 06:23:48;;;;;;;34.55;24.17;;;;;;;;;;5048333;28;20667;-75
2023/05/20 06:26:14;;;;;;;33.03;24.85;;;;;;;;;;5036395;28;20033;-75
2023/05/20 06:28:40;;;;;;;32.17;24.27;;;;;;;;;;5046252;28;20032;-74
2023/05/20 06:31:07;;;;;;;33.40;24.67;;;;;;;;;;5025846;28;20052;-75
2023/05/20 06:33:33;;;;;;;35.58;23.83;;;;;;;;;;5039274;28;20028;-75
2023/05/20 06:36:00;;;;;;;32.70;24.70;;;;;;;;;;5029684;28;20021;-75
2023/05/20 06:38:26;;;;;;;32.97;23.95;;;;;;;;;;5051634;28;20075;-75
2023/05/20 06:40:52;;;;;;;32.95;24.90;;;;;;;;;;5034532;28;20074;-75
2023/05/20 06:43:18;;;;;;;32.58;22.60;;;;;;;;;;5049296;28;20033;-76
2023/05/20 06:45:45;;;;;;;29.52;22.77;;;;;;;;;;5051405;28;20056;-75
2023/05/20 06:48:11;;;;;;;31.52;23.80;;;;;;;;;;5033967;28;20386;-75
2023/05/20 06:50:37;;;;;;;33.47;24.05;;;;;;;;;;5023475;28;20709;-75
2023/05/20 06:53:03;;;;;;;34.78;25.13;;;;;;;;;;5038771;28;20018;-76
2023/05/20 06:55:29;;;;;;;31.25;24.23;;;;;;;;;;5030871;28;20030;-75
2023/05/20 06:57:55;;;;;;;32.67;24.45;;;;;;;;;;5048244;28;20060;-75
2023/05/20 07:00:21;;;;;;;30.95;23.30;;;;;;;;;;5032969;28;20547;-75
2023/05/20 07:02:47;;;;;;;32.22;23.67;;;;;;;;;;5043521;28;20017;-75
2023/05/20 07:05:13;;;;;;;28.83;22.73;;;;;;;;;;5040509;28;20028;-75
2023/05/20 07:07:39;;;;;;;30.38;23.13;;;;;;;;;;5041021;28;20029;-75
2023/05/20 07:10:06;;;;;;;30.08;23.92;;;;;;;;;;5039884;28;20048;-75
2023/05/20 07:12:32;;;;;;;30.63;23.13;;;;;;;;;;5040863;28;20049;-75
2023/05/20 07:14:58;;;;;;;33.80;24.13;;;;;;;;;;5041805;28;20018;-75
2023/05/20 07:17:24;;;;;;;32.88;25.38;;;;;;;;;;5042408;28;20071;-75
2023/05/20 07:19:51;;;;;;;31.80;24.45;;;;;;;;;;5037862;28;20026;-76
2023/05/20 07:22:17;;;;;;;29.77;22.77;;;;;;;;;;5046115;28;20044;-75
2023/05/20 07:24:43;;;;;;;30.30;23.33;;;;;;;;;;5037831;28;20021;-75
2023/05/20 07:27:09;;;;;;;30.80;23.73;;;;;;;;;;5039850;28;20029;-75
2023/05/20 07:29:35;;;;;;;28.50;23.95;;;;;;;;;;5038692;28;20028;-73
2023/05/20 07:32:02;;;;;;;31.27;25.50;;;;;;;;;;5042423;28;20031;-75
2023/05/20 07:34:28;;;;;;;28.27;22.92;;;;;;;;;;5039800;28;20534;-75
2023/05/20 07:36:55;;;;;;;30.48;23.15;;;;;;;;;;5024686;28;20018;-76
2023/05/20 07:39:22;;;;;;;31.45;23.48;;;;;;;;;;5039491;28;20025;-75
2023/05/20 07:41:48;;;;;;;28.20;22.42;;;;;;;;;;5022237;28;21379;-76
2023/05/20 07:44:14;;;;;;;25.98;21.58;;;;;;;;;;5044383;28;20033;-74
2023/05/20 07:46:41;;;;;;;25.90;20.42;;;;;;;;;;5038230;28;20025;-74
2023/05/20 07:49:07;;;;;;;24.90;21.30;;;;;;;;;;5021432;28;20136;-74
2023/05/20 07:51:33;;;;;;;24.35;20.95;;;;;;;;;;5022237;28;20025;-75
2023/05/20 07:54:00;;;;;;;27.23;22.63;;;;;;;;;;5050815;28;20041;-75
2023/05/20 07:56:27;;;;;;;30.42;22.90;;;;;;;;;;5022434;28;20454;-75
2023/05/20 07:58:54;;;;;;;30.73;21.48;;;;;;;;;;5036996;28;20503;-75
2023/05/20 08:01:20;;;;;;;28.23;23.02;;;;;;;;;;5044003;28;20053;-74
2023/05/20 08:03:46;;;;;;;24.27;20.35;;;;;;;;;;5038369;28;20029;-74
2023/05/20 08:06:13;;;;;;;38.35;21.85;;;;;;;;;;5042039;28;20021;-75
2023/05/20 08:08:42;;;;;;;26.02;20.92;;;;;;;;;;5038678;28;20021;-75
2023/05/20 08:11:08;;;;;;;24.65;19.95;;;;;;;;;;5035328;28;20692;-74
2023/05/20 08:13:34;;;;;;;25.17;21.15;;;;;;;;;;5027983;28;20475;-74
2023/05/20 08:16:03;;;;;;;27.52;20.08;;;;;;;;;;5033661;28;20021;-74
2023/05/20 08:18:29;;;;;;;24.17;19.85;;;;;;;;;;5036038;28;20027;-68
2023/05/20 08:20:56;;;;;;;28.00;22.63;;;;;;;;;;5042169;28;20030;-68
2023/05/20 08:23:22;;;;;;;30.95;24.65;;;;;;;;;;5043484;28;20468;-68
2023/05/20 08:25:48;;;;;;;25.90;20.88;;;;;;;;;;5036898;28;20056;-68
2023/05/20 08:28:14;;;;;;;24.55;20.10;;;;;;;;;;5039364;28;20056;-68
2023/05/20 08:30:40;;;;;;;23.05;18.92;;;;;;;;;;5046210;28;20085;-68
2023/05/20 08:33:06;;;;;;;24.48;19.55;;;;;;;;;;5048457;28;20146;-68
2023/05/20 08:35:32;;;;;;;26.23;22.02;;;;;;;;;;5039560;28;20643;-68
2023/05/20 08:38:00;;;;;;;46.95;36.88;;;;;;;;;;5037513;28;20026;-67
2023/05/20 08:40:26;;;;;;;28.77;22.55;;;;;;;;;;5030871;28;20623;-66
2023/05/20 08:42:52;;;;;;;24.48;19.60;;;;;;;;;;5030444;28;20029;-67
2023/05/20 08:45:20;;;;;;;22.48;18.67;;;;;;;;;;5025097;28;20025;-68
2023/05/20 08:47:46;;;;;;;37.20;26.98;;;;;;;;;;5016143;28;20510;-66
2023/05/20 08:50:13;;;;;;;23.10;18.08;;;;;;;;;;5047389;28;20026;-67
2023/05/20 08:52:44;;;;;;;23.08;18.67;;;;;;;;;;5037560;28;20017;-68
2023/05/20 08:55:13;;;;;;;24.00;19.73;;;;;;;;;;5039732;28;20018;-68
2023/05/20 08:57:40;;;;;;;20.92;17.45;;;;;;;;;;5044603;28;20032;-68
2023/05/20 09:00:12;;;;;;;23.65;20.08;;;;;;;;;;5034121;28;20114;-68
2023/05/20 09:02:38;;;;;;;35.45;26.27;;;;;;;;;;5043833;28;20018;-67
2023/05/20 09:05:06;;;;;;;30.65;20.02;;;;;;;;;;5040616;28;20715;-67
2023/05/20 09:07:32;;;;;;;24.77;18.55;;;;;;;;;;5038987;28;20032;-67
2023/05/20 09:09:58;;;;;;;25.48;18.85;;;;;;;;;;5043640;28;20014;-68
2023/05/20 09:12:24;;;;;;;26.42;19.48;;;;;;;;;;5046893;28;20364;-68
2023/05/20 09:14:50;;;;;;;20.70;18.35;;;;;;;;;;5041248;28;20033;-68
2023/05/20 09:17:19;;;;;;;24.58;19.48;;;;;;;;;;5041154;28;20025;-68
2023/05/20 09:19:47;;;;;;;25.90;20.63;;;;;;;;;;5050263;28;20178;-68
2023/05/20 09:22:13;;;;;;;23.30;18.95;;;;;;;;;;5037535;28;20025;-69
2023/05/20 09:24:40;;;;;;;24.15;17.08;;;;;;;;;;5047878;28;20029;-68
2023/05/20 09:27:06;;;;;;;24.08;19.40;;;;;;;;;;5043768;28;20538;-69
2023/05/20 09:29:33;;;;;;;23.98;18.45;;;;;;;;;;5022196;28;20056;-69
2023/05/20 09:32:02;;;;;;;23.25;18.10;;;;;;;;;;5049930;28;20036;-68
2023/05/20 09:34:28;;;;;;;22.20;18.02;;;;;;;;;;5039115;28;20725;-68
2023/05/20 09:36:55;;;;;;;23.20;17.25;;;;;;;;;;5050697;28;20043;-68
2023/05/20 09:39:24;;;;;;;24.05;16.95;;;;;;;;;;5051498;28;20036;-68
2023/05/20 09:41:50;;;;;;;23.10;18.58;;;;;;;;;;5037585;28;20038;-70
2023/05/20 09:44:17;;;;;;;21.83;18.15;;;;;;;;;;5034089;28;20032;-69
2023/05/20 09:46:44;;;;;;;22.13;16.08;;;;;;;;;;5022946;28;20028;-70
2023/05/20 09:49:11;;;;;;;21.08;16.73;;;;;;;;;;5042307;28;20029;-69
2023/05/20 09:51:37;;;;;;;19.98;16.42;;;;;;;;;;5048144;28;20021;-75
2023/05/20 09:54:03;;;;;;;18.85;16.45;;;;;;;;;;5036842;28;20152;-75
2023/05/20 09:56:30;;;;;;;19.50;16.33;;;;;;;;;;5048098;28;20476;-75
2023/05/20 09:58:58;;;;;;;22.52;17.95;;;;;;;;;;5041897;28;20032;-75
2023/05/20 10:01:24;;;;;;;20.98;16.50;;;;;;;;;;5041156;28;20028;-75
2023/05/20 10:03:52;;;;;;;21.13;16.70;;;;;;;;;;5050281;28;20040;-75
2023/05/20 10:06:43;;;;;;;20.85;17.55;;;;;;;;;;5019602;28;20029;-75
2023/05/20 10:09:09;;;;;;;;;;;;;;;;;;5023976;28;20555;-75
2023/05/20 10:11:40;;;;;;;21.23;17.33;;;;;;;;;;5047999;28;19915;-75
2023/05/20 10:14:06;;;;;;;20.30;17.52;;;;;;;;;;5037313;28;20026;-76
2023/05/20 10:16:49;;;;;;;21.60;18.10;;;;;;;;;;5053234;28;20075;-76
2023/05/20 10:19:15;;;;;;;25.48;19.88;;;;;;;;;;5040264;28;20025;-74
2023/05/20 10:21:41;;;;;;;25.38;19.67;;;;;;;;;;5048174;28;20388;-74
2023/05/20 10:24:08;;;;;;;26.73;18.42;;;;;;;;;;5037010;28;20391;-76
2023/05/20 10:26:37;;;;;;;23.98;18.30;;;;;;;;;;5047523;28;20025;-75
2023/05/20 10:29:19;;;;;;;25.17;18.63;;;;;;;;;;5042668;28;20028;-75
2023/05/20 10:31:48;;;;;;;22.33;17.30;;;;;;;;;;5037580;28;20056;-74
2023/05/20 10:34:16;;;;;;;22.77;17.92;;;;;;;;;;5049612;28;20022;-74
2023/05/20 10:36:45;;;;;;;20.95;17.63;;;;;;;;;;5022213;28;20024;-76
2023/05/20 10:39:17;;;;;;;22.83;17.65;;;;;;;;;;5023718;28;20033;-77
2023/05/20 10:41:43;;;;;;;24.70;18.10;;;;;;;;;;5048971;28;20039;-76
2023/05/20 10:44:09;;;;;;;22.65;17.10;;;;;;;;;;5026112;28;20029;-76
2023/05/20 10:46:35;;;;;;;20.77;16.83;;;;;;;;;;5041041;28;20086;-76
2023/05/20 10:49:02;;;;;;;24.42;18.00;;;;;;;;;;5045413;28;20040;-75
2023/05/20 10:51:30;;;;;;;21.15;17.25;;;;;;;;;;5053487;28;20017;-75
2023/05/20 10:53:56;;;;;;;21.58;16.98;;;;;;;;;;5051943;28;20021;-75
2023/05/20 10:56:24;;;;;;;23.23;16.30;;;;;;;;;;5037063;28;20027;-74
2023/05/20 10:58:51;;;;;;;21.00;15.38;;;;;;;;;;5043724;28;20080;-76
2023/05/20 11:01:18;;;;;;;22.20;17.02;;;;;;;;;;5026696;28;20349;-75
2023/05/20 11:03:48;;;;;;;21.50;16.85;;;;;;;;;;5037319;28;20407;-76
2023/05/20 11:06:15;;;;;;;20.45;16.80;;;;;;;;;;5049136;28;20033;-75
2023/05/20 11:08:41;;;;;;;20.50;17.05;;;;;;;;;;5039003;28;20131;-75
2023/05/20 11:11:07;;;;;;;23.65;17.70;;;;;;;;;;5043965;28;20024;-75
2023/05/20 11:13:33;;;;;;;21.00;16.42;;;;;;;;;;5020603;28;20032;-75
2023/05/20 11:16:00;;;;;;;19.92;16.35;;;;;;;;;;5048698;28;20021;-74
2023/05/20 11:18:30;;;;;;;21.40;16.63;;;;;;;;;;5018702;28;20017;-75
2023/05/20 11:20:57;;;;;;;22.77;16.90;;;;;;;;;;5043208;28;20104;-74
2023/05/20 11:23:24;;;;;;;21.05;16.83;;;;;;;;;;5045042;28;20052;-74
2023/05/20 11:25:51;;;;;;;22.38;17.00;;;;;;;;;;5036117;28;20025;-74
2023/05/20 11:28:20;;;;;;;23.23;16.02;;;;;;;;;;5034490;28;20509;-74
2023/05/20 11:30:46;;;;;;;26.15;17.20;;;;;;;;;;5026598;28;20018;-74
2023/05/20 11:33:13;;;;;;;25.33;18.25;;;;;;;;;;5043177;28;20036;-74
2023/05/20 11:35:44;;;;;;;21.83;17.45;;;;;;;;;;5035478;28;20488;-75
2023/05/20 11:38:10;;;;;;;19.23;16.60;;;;;;;;;;5028010;28;20025;-74
2023/05/20 11:40:37;;;;;;;17.60;15.25;;;;;;;;;;5019606;28;20024;-74
2023/05/20 11:43:03;;;;;;;19.08;16.27;;;;;;;;;;5041716;28;20041;-75
2023/05/20 11:45:42;;;;;;;19.50;15.73;;;;;;;;;;5045240;28;20025;-75
2023/05/20 11:48:08;;;;;;;19.10;16.10;;;;;;;;;;5034493;28;20064;-74
2023/05/20 11:50:39;;;;;;;27.98;15.65;;;;;;;;;;5045726;28;20479;-75
2023/05/20 11:53:06;;;;;;;19.23;15.68;;;;;;;;;;5041779;28;20021;-75
2023/05/20 11:55:33;;;;;;;16.90;14.45;;;;;;;;;;5037508;28;20108;-74
2023/05/20 11:57:59;;;;;;;20.40;14.77;;;;;;;;;;5047220;28;20036;-75
2023/05/20 12:00:25;;;;;;;17.52;15.20;;;;;;;;;;5036073;28;20017;-75
2023/05/20 12:02:51;;;;;;;17.80;13.80;;;;;;;;;;5025142;28;20018;-74
2023/05/20 12:05:17;;;;;;;18.45;14.85;;;;;;;;;;5043337;28;20033;-75
2023/05/20 12:07:44;;;;;;;18.63;14.30;;;;;;;;;;5035145;28;20037;-75
2023/05/20 12:10:10;;;;;;;16.73;14.18;;;;;;;;;;5041833;28;20068;-75
2023/05/20 12:12:36;;;;;;;21.40;14.15;;;;;;;;;;5044895;28;20013;-75
2023/05/20 12:15:05;;;;;;;17.00;14.70;;;;;;;;;;5032617;28;20631;-75
2023/05/20 12:17:34;;;;;;;20.92;15.77;;;;;;;;;;5044247;28;20029;-75
2023/05/20 12:20:01;;;;;;;18.10;14.70;;;;;;;;;;5032209;28;20025;-75
2023/05/20 12:22:27;;;;;;;17.40;14.82;;;;;;;;;;5035953;28;20427;-74
2023/05/20 12:24:53;;;;;;;18.60;14.27;;;;;;;;;;5042351;28;20049;-74
2023/05/20 12:27:19;;;;;;;17.08;14.68;;;;;;;;;;5042297;28;20031;-75
2023/05/20 12:29:45;;;;;;;17.50;14.13;;;;;;;;;;5035256;28;20064;-75
2023/05/20 12:32:11;;;;;;;17.70;15.15;;;;;;;;;;5033712;28;20479;-76
2023/05/20 12:34:37;;;;;;;20.20;14.98;;;;;;;;;;5051142;28;20017;-75
2023/05/20 12:37:03;;;;;;;20.13;14.20;;;;;;;;;;5040323;28;20032;-76
2023/05/20 12:39:29;;;;;;;19.17;14.40;;;;;;;;;;5042692;28;20036;-76
2023/05/20 12:41:55;;;;;;;17.95;14.13;;;;;;;;;;5031392;28;20037;-75
2023/05/20 12:44:21;;;;;;;16.65;13.40;;;;;;;;;;5033271;28;20021;-75
2023/05/20 12:46:47;;;;;;;18.42;14.05;;;;;;;;;;5041091;28;20025;-75
2023/05/20 12:49:13;;;;;;;17.83;14.60;;;;;;;;;;5039461;28;20071;-76
2023/05/20 12:51:39;;;;;;;15.65;12.95;;;;;;;;;;5034099;28;20025;-75
2023/05/20 12:54:05;;;;;;;23.10;13.35;;;;;;;;;;5047268;28;20017;-75
2023/05/20 12:56:31;;;;;;;14.82;12.73;;;;;;;;;;5037446;28;20115;-75
2023/05/20 12:58:57;;;;;;;15.95;13.23;;;;;;;;;;5040633;28;20483;-75
2023/05/20 13:01:23;;;;;;;15.43;13.45;;;;;;;;;;5041485;28;20104;-75
2023/05/20 13:03:52;;;;;;;15.23;13.60;;;;;;;;;;5033953;28;20029;-75
2023/05/20 13:06:18;;;;;;;19.83;12.98;;;;;;;;;;5045928;28;20387;-75
2023/05/20 13:08:44;;;;;;;15.27;12.82;;;;;;;;;;5036378;28;20025;-75
2023/05/20 13:11:10;;;;;;;15.55;13.00;;;;;;;;;;5042172;28;20059;-75
2023/05/20 13:13:36;;;;;;;18.33;12.88;;;;;;;;;;5036067;28;20448;-74
2023/05/20 13:16:02;;;;;;;17.60;13.95;;;;;;;;;;5047021;28;20021;-75
2023/05/20 13:18:28;;;;;;;17.70;13.95;;;;;;;;;;5035342;28;20028;-75
2023/05/20 13:20:54;;;;;;;20.45;15.40;;;;;;;;;;5050626;28;20024;-75
2023/05/20 13:23:20;;;;;;;18.73;15.40;;;;;;;;;;5021232;28;20391;-74
2023/05/20 13:25:46;;;;;;;18.77;14.32;;;;;;;;;;5030255;28;20029;-75
2023/05/20 13:28:15;;;;;;;21.73;15.48;;;;;;;;;;5035625;28;20032;-75
2023/05/20 13:30:41;;;;;;;17.02;14.38;;;;;;;;;;5046127;28;20045;-75
2023/05/20 13:33:07;;;;;;;20.48;14.77;;;;;;;;;;5044402;28;20017;-75
2023/05/20 13:35:33;;;;;;;20.38;14.30;;;;;;;;;;5040223;28;20029;-75
2023/05/20 13:37:59;;;;;;;17.75;14.07;;;;;;;;;;5046893;28;20029;-74
2023/05/20 13:40:25;;;;;;;16.73;13.18;;;;;;;;;;5017989;28;20438;-75
2023/05/20 13:42:51;;;;;;;15.80;13.00;;;;;;;;;;5042245;28;20021;-76
2023/05/20 13:45:17;;;;;;;19.80;13.52;;;;;;;;;;5042494;28;20027;-75
2023/05/20 13:47:43;;;;;;;18.70;15.32;;;;;;;;;;5033956;28;20032;-75
2023/05/20 13:50:10;;;;;;;18.92;13.68;;;;;;;;;;5046702;28;20021;-75
2023/05/20 13:52:36;;;;;;;17.00;13.80;;;;;;;;;;5036314;28;20502;-75
2023/05/20 13:55:02;;;;;;;22.23;13.63;;;;;;;;;;5044088;28;20353;-75
2023/05/20 13:57:28;;;;;;;17.85;12.75;;;;;;;;;;5048740;28;20564;-74
2023/05/20 13:59:54;;;;;;;16.15;11.90;;;;;;;;;;5045466;28;20076;-74
2023/05/20 14:02:20;;;;;;;17.48;12.77;;;;;;;;;;5055828;28;20025;-74
2023/05/20 14:04:46;;;;;;;16.70;12.80;;;;;;;;;;5031940;28;20031;-73
2023/05/20 14:07:12;;;;;;;16.73;12.98;;;;;;;;;;5043240;28;20024;-75
2023/05/20 14:09:38;;;;;;;17.58;13.15;;;;;;;;;;5042023;28;20105;-75
2023/05/20 14:12:05;;;;;;;15.80;12.75;;;;;;;;;;5032145;28;20200;-76
2023/05/20 14:14:31;;;;;;;17.00;12.38;;;;;;;;;;5039291;28;20056;-75